createdAt,value
2018-07-02T00:00:07.326Z,54.28
2018-07-02T00:02:36.528Z,54.18
2018-07-02T00:05:05.305Z,54.12
2018-07-02T00:07:33.830Z,54.74
2018-07-02T00:10:02.443Z,54.69
2018-07-02T00:12:30.993Z,54.80
2018-07-02T00:14:59.441Z,55.23
2018-07-02T00:17:28.640Z,55.34
2018-07-02T00:19:57.160Z,55.44
2018-07-02T00:22:25.829Z,55.82
2018-07-02T00:24:54.987Z,55.79
2018-07-02T00:27:23.534Z,55.89
2018-07-02T00:29:51.997Z,56.20
2018-07-02T00:32:20.956Z,56.49
2018-07-02T00:34:49.846Z,56.49
2018-07-02T00:37:18.289Z,56.54
2018-07-02T00:39:47.069Z,56.75
2018-07-02T00:42:15.901Z,57.00
2018-07-02T00:44:44.657Z,56.96
2018-07-02T00:47:13.133Z,57.29
2018-07-02T00:49:41.952Z,57.61
2018-07-02T00:52:10.513Z,57.67
2018-07-02T00:54:39.227Z,57.87
2018-07-02T00:57:08.191Z,57.90
2018-07-02T00:59:36.813Z,57.82
2018-07-02T01:02:05.621Z,58.14
2018-07-02T01:04:34.337Z,58.40
2018-07-02T01:07:03.417Z,58.28
2018-07-02T01:09:32.335Z,58.67
2018-07-02T01:12:00.887Z,58.87
2018-07-02T01:14:29.642Z,58.99
2018-07-02T01:16:58.117Z,59.20
2018-07-02T01:19:26.571Z,59.56
2018-07-02T01:21:55.013Z,59.37
2018-07-02T01:24:23.448Z,59.39
2018-07-02T01:26:52.234Z,59.98
2018-07-02T01:29:20.701Z,59.95
2018-07-02T01:31:49.486Z,60.08
2018-07-02T01:34:18.605Z,60.39
2018-07-02T01:36:47.125Z,60.46
2018-07-02T01:39:15.677Z,60.65
2018-07-02T01:41:44.368Z,60.88
2018-07-02T01:44:13.031Z,60.78
2018-07-02T01:46:42.310Z,61.22
2018-07-02T01:49:10.772Z,61.02
2018-07-02T01:51:39.705Z,61.19
2018-07-02T01:54:08.189Z,61.46
2018-07-02T01:56:36.653Z,61.40
2018-07-02T01:59:05.425Z,61.80
2018-07-02T02:01:34.415Z,61.70
2018-07-02T02:04:02.887Z,62.08
2018-07-02T02:06:32.033Z,62.18
2018-07-02T02:09:00.692Z,62.46
2018-07-02T02:11:29.170Z,62.35
2018-07-02T02:13:57.842Z,62.43
2018-07-02T02:16:26.674Z,62.54
2018-07-02T02:18:55.228Z,62.67
2018-07-02T02:21:23.917Z,62.67
2018-07-02T02:23:52.422Z,62.98
2018-07-02T02:26:20.893Z,63.15
2018-07-02T02:28:49.669Z,63.27
2018-07-02T02:31:18.240Z,63.14
2018-07-02T02:33:46.734Z,63.25
2018-07-02T02:36:15.414Z,63.61
2018-07-02T02:38:44.096Z,63.38
2018-07-02T02:41:12.945Z,63.65
2018-07-02T02:43:41.573Z,63.78
2018-07-02T02:46:10.082Z,64.10
2018-07-02T02:48:38.877Z,63.72
2018-07-02T02:51:07.542Z,63.71
2018-07-02T02:53:36.505Z,63.98
2018-07-02T02:56:05.069Z,64.07
2018-07-02T02:58:33.682Z,63.99
2018-07-02T03:01:02.238Z,64.18
2018-07-02T03:03:31.573Z,64.47
2018-07-02T03:06:00.142Z,64.38
2018-07-02T03:08:28.820Z,64.62
2018-07-02T03:10:57.325Z,64.60
2018-07-02T03:13:25.982Z,64.38
2018-07-02T03:15:54.709Z,64.50
2018-07-02T03:18:23.505Z,64.40
2018-07-02T03:20:52.530Z,64.87
2018-07-02T03:23:21.253Z,64.51
2018-07-02T03:25:49.747Z,64.79
2018-07-02T03:28:18.210Z,64.82
2018-07-02T03:30:47.025Z,64.73
2018-07-02T03:33:15.485Z,64.97
2018-07-02T03:35:43.950Z,64.78
2018-07-02T03:38:12.750Z,64.57
2018-07-02T03:40:41.185Z,65.03
2018-07-02T03:43:09.668Z,64.63
2018-07-02T03:45:38.354Z,64.82
2018-07-02T03:48:06.809Z,65.01
2018-07-02T03:50:35.453Z,65.18
2018-07-02T03:53:04.337Z,64.94
2018-07-02T03:55:33.048Z,64.79
2018-07-02T03:58:08.429Z,64.80
2018-07-02T04:00:36.877Z,64.43
2018-07-02T04:03:05.429Z,64.87
2018-07-02T04:05:34.754Z,64.56
2018-07-02T04:08:03.509Z,64.42
2018-07-02T04:10:31.958Z,64.18
2018-07-02T04:13:00.684Z,64.51
2018-07-02T04:15:29.104Z,64.51
2018-07-02T04:17:57.901Z,64.49
2018-07-02T04:20:26.800Z,64.46
2018-07-02T04:22:55.255Z,64.16
2018-07-02T04:25:23.869Z,63.78
2018-07-02T04:27:53.233Z,63.99
2018-07-02T04:30:21.708Z,64.10
2018-07-02T04:32:50.169Z,63.74
2018-07-02T04:35:19.284Z,63.96
2018-07-02T04:37:47.961Z,63.70
2018-07-02T04:40:16.431Z,63.19
2018-07-02T04:42:44.992Z,63.31
2018-07-02T04:45:13.545Z,63.35
2018-07-02T04:47:42.690Z,63.31
2018-07-02T04:50:11.777Z,63.11
2018-07-02T04:52:40.761Z,62.81
2018-07-02T04:55:09.625Z,63.13
2018-07-02T04:57:38.753Z,62.28
2018-07-02T05:00:07.505Z,63.11
2018-07-02T05:02:36.465Z,62.13
2018-07-02T05:05:05.806Z,62.15
2018-07-02T05:07:35.039Z,62.21
2018-07-02T05:10:03.597Z,61.63
2018-07-02T05:12:32.457Z,61.80
2018-07-02T05:15:00.912Z,61.46
2018-07-02T05:17:29.367Z,61.15
2018-07-02T05:19:58.201Z,61.01
2018-07-02T05:22:27.048Z,60.93
2018-07-02T05:24:55.529Z,61.03
2018-07-02T05:27:24.425Z,61.01
2018-07-02T05:29:52.847Z,60.50
2018-07-02T05:32:21.271Z,60.25
2018-07-02T05:34:50.267Z,60.34
2018-07-02T05:37:18.693Z,60.26
2018-07-02T05:39:47.353Z,60.05
2018-07-02T05:42:16.061Z,59.89
2018-07-02T05:44:44.496Z,59.56
2018-07-02T05:47:13.109Z,59.35
2018-07-02T05:49:41.804Z,59.47
2018-07-02T05:52:10.446Z,59.01
2018-07-02T05:54:39.454Z,59.06
2018-07-02T05:57:07.926Z,58.61
2018-07-02T05:59:36.684Z,58.66
2018-07-02T06:02:05.229Z,57.90
2018-07-02T06:04:33.681Z,57.68
2018-07-02T06:07:02.557Z,57.78
2018-07-02T06:09:30.993Z,57.10
2018-07-02T06:11:59.497Z,57.20
2018-07-02T06:14:28.606Z,57.18
2018-07-02T06:16:57.174Z,56.67
2018-07-02T06:19:25.649Z,56.06
2018-07-02T06:21:54.619Z,55.98
2018-07-02T06:24:23.220Z,55.80
2018-07-02T06:26:51.702Z,55.71
2018-07-02T06:29:20.457Z,55.46
2018-07-02T06:31:48.905Z,54.59
2018-07-02T06:34:17.557Z,54.26
2018-07-02T06:36:46.205Z,53.99
2018-07-02T06:39:14.654Z,53.44
2018-07-02T06:41:43.128Z,52.94
2018-07-02T06:44:11.981Z,52.72
2018-07-02T06:46:40.457Z,52.15
2018-07-02T06:49:09.193Z,51.48
2018-07-02T06:51:38.033Z,51.06
2018-07-02T06:54:06.842Z,50.86
2018-07-02T06:56:36.168Z,50.27
2018-07-02T06:59:04.641Z,49.96
2018-07-02T07:01:33.640Z,50.12
2018-07-02T07:04:02.545Z,49.54
2018-07-02T07:06:31.053Z,49.51
2018-07-02T07:09:00.028Z,49.16
2018-07-02T07:11:28.604Z,48.46
2018-07-02T07:13:57.045Z,48.18
2018-07-02T07:16:25.485Z,47.69
2018-07-02T07:18:54.437Z,46.78
2018-07-02T07:21:22.877Z,46.23
2018-07-02T07:23:51.325Z,45.79
2018-07-02T07:26:20.026Z,45.63
2018-07-02T07:28:48.794Z,45.47
2018-07-02T07:31:17.534Z,44.98
2018-07-02T07:33:46.042Z,44.95
2018-07-02T07:36:14.826Z,44.18
2018-07-02T07:38:43.947Z,44.13
2018-07-02T07:41:13.119Z,43.84
2018-07-02T07:43:41.601Z,44.06
2018-07-02T07:46:10.261Z,43.91
2018-07-02T07:48:38.754Z,42.74
2018-07-02T07:51:07.223Z,42.07
2018-07-02T07:53:36.369Z,40.77
2018-07-02T07:56:05.525Z,39.66
2018-07-02T07:58:34.942Z,38.35
2018-07-02T08:01:03.658Z,37.51
2018-07-02T08:03:32.991Z,36.30
2018-07-02T08:06:01.485Z,36.19
2018-07-02T08:08:30.000Z,35.63
2018-07-02T08:10:58.945Z,35.24
2018-07-02T08:13:27.839Z,34.17
2018-07-02T08:15:56.297Z,34.31
2018-07-02T08:18:26.170Z,34.24
2018-07-02T08:20:54.614Z,34.11
2018-07-02T08:23:23.066Z,32.84
2018-07-02T08:25:52.328Z,32.14
2018-07-02T08:28:21.145Z,31.20
2018-07-02T08:30:49.590Z,30.65
2018-07-02T08:33:18.474Z,29.07
2018-07-02T08:35:46.923Z,28.63
2018-07-02T08:38:15.383Z,28.85
2018-07-02T08:40:44.277Z,28.36
2018-07-02T08:43:12.729Z,28.45
2018-07-02T08:45:41.191Z,27.79
2018-07-02T08:48:09.774Z,27.35
2018-07-02T08:50:38.205Z,27.38
2018-07-02T08:53:06.838Z,28.65
2018-07-02T08:55:36.061Z,27.81
2018-07-02T08:58:05.048Z,26.62
2018-07-02T09:00:33.628Z,26.42
2018-07-02T09:03:02.795Z,25.77
2018-07-02T09:05:31.438Z,26.85
2018-07-02T09:07:59.864Z,25.61
2018-07-02T09:10:28.366Z,25.76
2018-07-02T09:12:57.021Z,24.37
2018-07-02T09:15:25.992Z,24.35
2018-07-02T09:17:54.810Z,25.07
2018-07-02T09:20:23.261Z,24.39
2018-07-02T09:22:51.706Z,23.48
2018-07-02T09:25:20.694Z,23.21
2018-07-02T09:27:49.137Z,23.19
2018-07-02T09:30:17.667Z,22.91
2018-07-02T09:32:46.300Z,22.54
2018-07-02T09:35:14.742Z,23.41
2018-07-02T09:37:43.243Z,23.35
2018-07-02T09:40:11.797Z,24.07
2018-07-02T09:42:40.313Z,22.71
2018-07-02T09:45:09.031Z,22.62
2018-07-02T09:47:38.497Z,23.44
2018-07-02T09:50:07.077Z,23.79
2018-07-02T09:52:35.717Z,23.91
2018-07-02T09:55:04.813Z,22.04
2018-07-02T09:57:34.217Z,21.49
2018-07-02T10:00:02.954Z,22.11
2018-07-02T10:02:32.182Z,21.02
2018-07-02T10:05:00.635Z,22.15
2018-07-02T10:07:29.108Z,21.80
2018-07-02T10:09:57.777Z,20.76
2018-07-02T10:12:26.221Z,21.36
2018-07-02T10:14:54.683Z,22.12
2018-07-02T10:17:23.350Z,21.16
2018-07-02T10:19:51.807Z,21.26
2018-07-02T10:22:20.249Z,20.15
2018-07-02T10:24:49.041Z,21.75
2018-07-02T10:27:17.513Z,21.52
2018-07-02T10:29:45.981Z,20.89
2018-07-02T10:32:15.118Z,20.75
2018-07-02T10:34:43.668Z,20.95
2018-07-02T10:37:12.106Z,19.96
2018-07-02T10:39:41.259Z,20.69
2018-07-02T10:42:09.717Z,20.03
2018-07-02T10:44:38.399Z,20.24
2018-07-02T10:47:06.920Z,19.95
2018-07-02T10:49:35.426Z,20.10
2018-07-02T10:52:03.918Z,20.79
2018-07-02T10:54:32.569Z,20.07
2018-07-02T10:57:01.033Z,19.41
2018-07-02T10:59:29.487Z,20.32
2018-07-02T11:01:58.649Z,19.42
2018-07-02T11:04:27.249Z,19.85
2018-07-02T11:06:55.717Z,19.74
2018-07-02T11:09:24.544Z,19.47
2018-07-02T11:11:53.182Z,20.61
2018-07-02T11:14:27.964Z,19.67
2018-07-02T11:16:56.845Z,19.32
2018-07-02T11:19:25.301Z,18.60
2018-07-02T11:21:53.953Z,20.10
2018-07-02T11:24:22.386Z,20.77
2018-07-02T11:26:50.818Z,20.45
2018-07-02T11:29:19.377Z,20.44
2018-07-02T11:31:48.064Z,20.06
2018-07-02T11:34:16.912Z,19.53
2018-07-02T11:36:52.360Z,18.93
2018-07-02T11:39:20.797Z,19.09
2018-07-02T11:41:49.225Z,18.30
2018-07-02T11:44:19.053Z,18.76
2018-07-02T11:46:47.540Z,19.94
2018-07-02T11:49:16.285Z,19.45
2018-07-02T11:51:45.704Z,20.11
2018-07-02T11:54:14.697Z,20.90
2018-07-02T11:56:43.137Z,21.22
2018-07-02T11:59:11.773Z,20.91
2018-07-02T12:01:40.209Z,21.71
2018-07-02T12:04:08.748Z,21.31
2018-07-02T12:06:37.732Z,20.71
2018-07-02T12:09:08.517Z,20.28
2018-07-02T12:11:36.989Z,19.81
2018-07-02T12:14:05.573Z,21.04
2018-07-02T12:16:34.062Z,20.76
2018-07-02T12:19:02.603Z,21.08
2018-07-02T12:21:31.556Z,21.09
2018-07-02T12:24:00.013Z,21.75
2018-07-02T12:26:28.486Z,21.66
2018-07-02T12:28:57.063Z,22.37
2018-07-02T12:31:25.533Z,21.56
2018-07-02T12:33:53.976Z,22.53
2018-07-02T12:36:23.267Z,22.73
2018-07-02T12:38:51.777Z,22.62
2018-07-02T12:41:20.406Z,23.09
2018-07-02T12:43:49.312Z,23.03
2018-07-02T12:46:17.757Z,23.72
2018-07-02T12:48:46.187Z,23.85
2018-07-02T12:51:14.630Z,23.71
2018-07-02T12:53:43.091Z,24.29
2018-07-02T12:56:11.623Z,24.24
2018-07-02T12:58:40.368Z,24.76
2018-07-02T13:01:08.888Z,25.09
2018-07-02T13:03:37.319Z,25.86
2018-07-02T13:06:06.709Z,26.61
2018-07-02T13:08:35.855Z,26.21
2018-07-02T13:11:04.372Z,25.70
2018-07-02T13:13:33.715Z,25.89
2018-07-02T13:16:02.124Z,25.81
2018-07-02T13:18:30.606Z,25.52
2018-07-02T13:20:59.099Z,25.35
2018-07-02T13:23:27.561Z,25.37
2018-07-02T13:25:55.989Z,25.54
2018-07-02T13:28:25.085Z,25.84
2018-07-02T13:30:53.561Z,25.60
2018-07-02T13:33:22.043Z,26.28
2018-07-02T13:35:52.341Z,27.21
2018-07-02T13:38:21.257Z,27.70
2018-07-02T13:40:49.708Z,28.23
2018-07-02T13:43:18.864Z,28.88
2018-07-02T13:45:47.757Z,30.28
2018-07-02T13:48:17.246Z,31.14
2018-07-02T13:50:45.729Z,31.87
2018-07-02T13:53:14.177Z,32.99
2018-07-02T13:55:42.645Z,33.10
2018-07-02T13:58:11.265Z,33.87
2018-07-02T14:00:39.689Z,35.41
2018-07-02T14:03:08.175Z,35.11
2018-07-02T14:05:37.022Z,34.59
2018-07-02T14:08:05.985Z,34.25
2018-07-02T14:10:34.962Z,35.74
2018-07-02T14:13:03.432Z,36.04
2018-07-02T14:15:32.041Z,36.28
2018-07-02T14:18:00.498Z,36.39
2018-07-02T14:20:29.247Z,36.25
2018-07-02T14:22:57.693Z,36.78
2018-07-02T14:25:26.237Z,36.68
2018-07-02T14:27:54.781Z,36.73
2018-07-02T14:30:23.224Z,36.54
2018-07-02T14:32:51.752Z,36.68
2018-07-02T14:35:20.330Z,37.01
2018-07-02T14:37:48.926Z,37.35
2018-07-02T14:40:18.081Z,37.46
2018-07-02T14:42:47.082Z,37.22
2018-07-02T14:45:15.803Z,37.03
2018-07-02T14:47:44.031Z,37.40
2018-07-02T14:50:12.839Z,37.16
2018-07-02T14:52:41.275Z,37.25
2018-07-02T14:55:09.733Z,37.48
2018-07-02T14:57:38.662Z,37.36
2018-07-02T15:00:07.309Z,37.24
2018-07-02T15:02:35.817Z,37.23
2018-07-02T15:05:04.657Z,36.89
2018-07-02T15:07:33.099Z,36.77
2018-07-02T15:10:01.606Z,36.46
2018-07-02T15:12:30.388Z,36.74
2018-07-02T15:14:59.081Z,36.72
2018-07-02T15:17:27.653Z,37.43
2018-07-02T15:19:56.916Z,36.71
2018-07-02T15:22:25.508Z,36.74
2018-07-02T15:24:53.995Z,36.92
2018-07-02T15:27:23.209Z,36.62
2018-07-02T15:29:51.664Z,36.80
2018-07-02T15:32:20.369Z,37.26
2018-07-02T15:34:48.897Z,36.84
2018-07-02T15:37:17.351Z,37.54
2018-07-02T15:39:46.087Z,37.15
2018-07-02T15:42:14.614Z,37.66
2018-07-02T15:44:43.057Z,37.44
2018-07-02T15:47:11.590Z,37.66
2018-07-02T15:49:40.099Z,37.52
2018-07-02T15:52:09.028Z,38.10
2018-07-02T15:54:37.483Z,37.83
2018-07-02T15:57:06.925Z,37.69
2018-07-02T15:59:35.381Z,37.31
2018-07-02T16:02:04.062Z,37.29
2018-07-02T16:04:32.569Z,37.41
2018-07-02T16:07:01.130Z,37.11
2018-07-02T16:09:36.681Z,38.00
2018-07-02T16:12:05.231Z,37.87
2018-07-02T16:14:33.993Z,37.51
2018-07-02T16:17:02.717Z,38.27
2018-07-02T16:19:31.165Z,37.98
2018-07-02T16:21:59.701Z,37.67
2018-07-02T16:24:28.417Z,38.28
2018-07-02T16:26:56.925Z,38.26
2018-07-02T16:29:25.815Z,37.88
2018-07-02T16:31:54.610Z,38.24
2018-07-02T16:34:23.172Z,38.69
2018-07-02T16:36:51.706Z,38.53
2018-07-02T16:39:20.597Z,38.62
2018-07-02T16:41:49.047Z,38.62
2018-07-02T16:44:17.975Z,38.43
2018-07-02T16:46:47.049Z,38.66
2018-07-02T16:49:15.510Z,39.07
2018-07-02T16:51:44.160Z,39.33
2018-07-02T16:54:13.125Z,39.34
2018-07-02T16:56:41.612Z,39.39
2018-07-02T16:59:10.096Z,39.96
2018-07-02T17:01:39.166Z,39.69
2018-07-02T17:04:08.054Z,39.88
2018-07-02T17:06:36.611Z,40.58
2018-07-02T17:09:09.369Z,39.97
2018-07-02T17:11:38.506Z,40.24
2018-07-02T17:14:07.079Z,40.52
2018-07-02T17:16:36.098Z,40.51
2018-07-02T17:19:05.195Z,40.72
2018-07-02T17:21:33.750Z,40.66
2018-07-02T17:24:02.408Z,41.06
2018-07-02T17:26:30.949Z,41.38
2018-07-02T17:28:59.887Z,41.03
2018-07-02T17:31:28.478Z,41.45
2018-07-02T17:33:57.039Z,41.08
2018-07-02T17:36:25.507Z,41.38
2018-07-02T17:38:54.057Z,41.31
2018-07-02T17:41:22.597Z,41.76
2018-07-02T17:43:51.094Z,42.13
2018-07-02T17:46:19.724Z,42.01
2018-07-02T17:48:48.256Z,42.04
2018-07-02T17:51:16.717Z,42.18
2018-07-02T17:53:45.189Z,42.54
2018-07-02T17:56:14.306Z,42.48
2018-07-02T17:58:42.737Z,42.12
2018-07-02T18:01:12.404Z,42.54
2018-07-02T18:03:43.213Z,41.92
2018-07-02T18:06:11.662Z,42.47
2018-07-02T18:08:40.269Z,42.62
2018-07-02T18:11:08.905Z,42.36
2018-07-02T18:13:37.393Z,42.68
2018-07-02T18:16:06.113Z,42.72
2018-07-02T18:18:34.754Z,42.97
2018-07-02T18:21:03.658Z,42.76
2018-07-02T18:23:32.289Z,42.77
2018-07-02T18:26:01.247Z,43.25
2018-07-02T18:28:29.717Z,42.83
2018-07-02T18:30:58.349Z,43.17
2018-07-02T18:33:26.826Z,43.12
2018-07-02T18:35:55.383Z,43.46
2018-07-02T18:38:23.997Z,43.73
2018-07-02T18:40:52.433Z,43.51
2018-07-02T18:43:20.932Z,43.48
2018-07-02T18:45:49.544Z,43.91
2018-07-02T18:48:18.237Z,43.49
2018-07-02T18:50:46.674Z,43.96
2018-07-02T18:53:15.153Z,44.01
2018-07-02T18:55:43.700Z,43.83
2018-07-02T18:58:12.162Z,43.83
2018-07-02T19:00:40.730Z,44.05
2018-07-02T19:03:09.339Z,44.13
2018-07-02T19:05:37.935Z,44.19
2018-07-02T19:08:06.603Z,44.17
2018-07-02T19:10:36.124Z,44.54
2018-07-02T19:13:07.350Z,43.88
2018-07-02T19:15:35.804Z,44.58
2018-07-02T19:18:05.160Z,44.09
2018-07-02T19:20:34.189Z,44.28
2018-07-02T19:23:02.638Z,44.58
2018-07-02T19:25:31.216Z,44.92
2018-07-02T19:28:00.393Z,44.24
2018-07-02T19:30:28.911Z,44.76
2018-07-02T19:32:57.431Z,44.28
2018-07-02T19:35:26.119Z,44.98
2018-07-02T19:37:54.585Z,44.95
2018-07-02T19:40:23.059Z,44.96
2018-07-02T19:42:52.026Z,44.94
2018-07-02T19:45:20.605Z,44.77
2018-07-02T19:47:49.142Z,44.62
2018-07-02T19:50:17.924Z,44.66
2018-07-02T19:52:46.357Z,44.51
2018-07-02T19:55:14.899Z,44.79
2018-07-02T19:57:43.852Z,44.70
2018-07-02T20:00:12.347Z,45.13
2018-07-02T20:02:40.861Z,45.14
2018-07-02T20:05:09.831Z,44.70
2018-07-02T20:07:38.314Z,44.81
2018-07-02T20:10:07.009Z,45.17
2018-07-02T20:12:35.930Z,44.89
2018-07-02T20:15:04.458Z,45.18
2018-07-02T20:17:32.914Z,45.04
2018-07-02T20:20:01.995Z,44.98
2018-07-02T20:22:30.660Z,44.76
2018-07-02T20:24:59.205Z,44.93
2018-07-02T20:27:28.076Z,44.35
2018-07-02T20:29:56.518Z,44.70
2018-07-02T20:32:24.979Z,44.72
2018-07-02T20:34:54.108Z,44.33
2018-07-02T20:37:22.645Z,44.63
2018-07-02T20:39:51.093Z,44.72
2018-07-02T20:42:19.741Z,44.80
2018-07-02T20:44:48.274Z,44.43
2018-07-02T20:47:17.049Z,44.61
2018-07-02T20:49:46.246Z,44.44
2018-07-02T20:52:15.096Z,44.24
2018-07-02T20:54:43.590Z,44.67
2018-07-02T20:57:12.861Z,44.49
2018-07-02T20:59:41.291Z,44.36
2018-07-02T21:02:09.808Z,44.32
2018-07-02T21:04:38.828Z,44.94
2018-07-02T21:07:07.349Z,44.72
2018-07-02T21:09:35.793Z,44.66
2018-07-02T21:12:04.966Z,44.70
2018-07-02T21:14:34.606Z,44.66
2018-07-02T21:17:03.531Z,44.54
2018-07-02T21:19:32.222Z,44.51
2018-07-02T21:22:00.842Z,44.69
2018-07-02T21:24:30.223Z,44.93
2018-07-02T21:26:59.145Z,44.97
2018-07-02T21:29:28.009Z,44.40
2018-07-02T21:31:56.802Z,44.65
2018-07-02T21:34:26.115Z,44.78
2018-07-02T21:36:55.539Z,45.20
2018-07-02T21:39:25.031Z,44.54
2018-07-02T21:41:55.269Z,44.78
2018-07-02T21:44:23.723Z,44.46
2018-07-02T21:46:53.189Z,44.44
2018-07-02T21:49:22.221Z,44.35
2018-07-02T21:51:50.682Z,44.17
2018-07-02T21:54:19.221Z,44.50
2018-07-02T21:56:47.984Z,44.21
2018-07-02T21:59:16.439Z,44.22
2018-07-02T22:01:44.912Z,44.06
2018-07-02T22:04:13.719Z,44.10
2018-07-02T22:06:42.256Z,43.89
2018-07-02T22:09:11.701Z,44.36
2018-07-02T22:11:40.492Z,44.19
2018-07-02T22:14:08.990Z,44.43
2018-07-02T22:16:37.893Z,44.92
2018-07-02T22:19:07.129Z,44.68
2018-07-02T22:21:35.581Z,45.06
2018-07-02T22:24:04.096Z,44.88
2018-07-02T22:26:33.913Z,44.97
2018-07-02T22:29:02.365Z,44.99
2018-07-02T22:31:30.862Z,44.58
2018-07-02T22:33:59.513Z,45.02
2018-07-02T22:36:28.142Z,44.85
2018-07-02T22:39:03.364Z,44.43
2018-07-02T22:41:32.073Z,44.94
2018-07-02T22:44:00.493Z,44.54
2018-07-02T22:46:28.965Z,44.38
2018-07-02T22:48:57.453Z,44.68
2018-07-02T22:51:25.885Z,44.38
2018-07-02T22:53:54.458Z,44.48
2018-07-02T22:56:22.989Z,44.32
2018-07-02T22:58:51.627Z,44.51
2018-07-02T23:01:20.570Z,44.68
2018-07-02T23:03:49.089Z,44.98
2018-07-02T23:06:17.525Z,45.18
2018-07-02T23:08:46.291Z,44.84
2018-07-02T23:11:15.092Z,45.04
2018-07-02T23:13:43.589Z,45.47
2018-07-02T23:16:12.672Z,45.69
2018-07-02T23:18:41.478Z,45.55
2018-07-02T23:21:09.905Z,45.56
2018-07-02T23:23:38.789Z,45.62
2018-07-02T23:26:07.382Z,45.96
2018-07-02T23:28:36.505Z,46.29
2018-07-02T23:31:05.409Z,46.07
2018-07-02T23:33:33.934Z,46.01
2018-07-02T23:36:02.567Z,46.43
2018-07-02T23:38:31.458Z,46.25
2018-07-02T23:41:00.295Z,46.44
2018-07-02T23:43:28.805Z,46.56
2018-07-02T23:45:57.503Z,46.69
2018-07-02T23:48:26.270Z,46.87
2018-07-02T23:50:54.716Z,46.93
2018-07-02T23:53:23.587Z,46.98
2018-07-02T23:55:52.357Z,47.05
2018-07-02T23:58:21.222Z,47.23
